createdAt,value
2018-10-12T21:38:36.004Z,19.90
2018-10-12T21:41:05.299Z,19.80
2018-10-12T21:43:34.311Z,19.80
2018-10-12T21:46:07.588Z,19.80
2018-10-12T21:48:39.632Z,19.80
2018-10-12T21:51:09.454Z,19.80
2018-10-12T21:53:38.849Z,19.70
2018-10-12T21:56:07.879Z,19.70
2018-10-12T21:58:37.692Z,19.70
2018-10-12T22:01:09.926Z,19.70
2018-10-12T22:03:40.167Z,19.60
2018-10-12T22:06:09.532Z,19.60
2018-10-12T22:08:43.838Z,19.50
2018-10-12T22:11:12.715Z,19.50
2018-10-12T22:13:41.904Z,19.50
2018-10-12T22:16:12.973Z,19.50
2018-10-12T22:18:44.937Z,19.40
2018-10-12T22:21:14.090Z,19.40
2018-10-12T22:23:42.917Z,19.40
2018-10-12T22:26:12.296Z,19.30
2018-10-12T22:28:41.060Z,19.20
2018-10-12T22:31:10.061Z,19.20
2018-10-12T22:33:42.160Z,19.10
2018-10-12T22:36:11.778Z,19.20
2018-10-12T22:38:43.205Z,19.20
2018-10-12T22:41:12.583Z,19.20
2018-10-12T22:43:41.345Z,19.10
2018-10-12T22:46:10.329Z,19.10
2018-10-12T22:48:39.333Z,19.00
2018-10-12T22:51:09.001Z,19.00
2018-10-12T22:53:37.808Z,18.90
2018-10-12T22:56:07.107Z,18.90
2018-10-12T22:58:36.632Z,18.90
2018-10-12T23:01:07.053Z,19.00
2018-10-12T23:03:37.640Z,19.00
2018-10-12T23:06:07.424Z,19.00
2018-10-12T23:08:36.620Z,19.00
2018-10-12T23:11:05.988Z,19.00
2018-10-12T23:13:38.928Z,18.90
2018-10-12T23:16:13.665Z,18.90
2018-10-12T23:18:43.809Z,19.00
2018-10-12T23:21:13.036Z,19.00
2018-10-12T23:23:41.825Z,19.00
2018-10-12T23:26:11.136Z,19.00
2018-10-12T23:28:45.197Z,18.90
2018-10-12T23:31:19.404Z,19.10
2018-10-12T23:34:02.436Z,19.00
2018-10-12T23:36:36.032Z,19.10
2018-10-12T23:39:13.489Z,19.00
2018-10-12T23:41:49.422Z,19.10
2018-10-12T23:44:25.989Z,19.10
2018-10-12T23:46:59.415Z,19.00
2018-10-12T23:49:30.650Z,19.10
2018-10-12T23:52:01.477Z,19.10
2018-10-12T23:54:30.289Z,19.10
2018-10-12T23:56:59.554Z,19.00
2018-10-12T23:59:28.614Z,19.00
